createdAt,value
2017-12-10T00:02:05.651Z,0.80
2017-12-10T00:04:34.764Z,0.90
2017-12-10T00:07:03.076Z,0.90
2017-12-10T00:09:31.369Z,0.90
2017-12-10T00:11:59.707Z,0.90
2017-12-10T00:14:28.110Z,0.80
2017-12-10T00:16:56.360Z,0.70
2017-12-10T00:19:24.670Z,0.60
2017-12-10T00:21:52.956Z,0.60
2017-12-10T00:24:21.263Z,0.70
2017-12-10T00:26:50.293Z,0.70
2017-12-10T00:29:18.570Z,0.70
2017-12-10T00:31:46.897Z,0.60
2017-12-10T00:34:15.221Z,0.60
2017-12-10T00:36:43.510Z,0.50
2017-12-10T00:39:11.889Z,0.50
2017-12-10T00:41:40.181Z,0.50
2017-12-10T00:44:09.248Z,0.50
2017-12-10T00:46:37.564Z,0.50
2017-12-10T00:49:05.847Z,0.60
2017-12-10T00:51:34.129Z,0.60
2017-12-10T00:54:02.374Z,0.60
2017-12-10T00:56:30.782Z,0.60
2017-12-10T00:58:59.085Z,0.60
2017-12-10T01:01:28.143Z,0.60
2017-12-10T01:03:57.195Z,0.60
2017-12-10T01:06:31.147Z,0.60
2017-12-10T01:08:59.470Z,0.60
2017-12-10T01:11:27.804Z,0.60
2017-12-10T01:13:56.082Z,0.60
2017-12-10T01:16:24.365Z,0.50
2017-12-10T01:18:52.692Z,0.40
2017-12-10T01:21:20.958Z,0.50
2017-12-10T01:23:49.240Z,0.50
2017-12-10T01:26:17.551Z,0.40
2017-12-10T01:28:45.814Z,0.40
2017-12-10T01:31:14.111Z,0.30
2017-12-10T01:33:42.520Z,0.30
2017-12-10T01:36:11.574Z,0.30
2017-12-10T01:38:39.882Z,0.30
2017-12-10T01:41:08.149Z,0.30
2017-12-10T01:43:36.441Z,0.20
2017-12-10T01:46:05.547Z,0.20
2017-12-10T01:48:34.584Z,0.20
2017-12-10T01:51:02.832Z,0.20
2017-12-10T01:53:31.078Z,0.20
2017-12-10T01:55:59.312Z,0.20
2017-12-10T01:58:27.620Z,0.10
2017-12-10T02:00:55.957Z,0.10
2017-12-10T02:03:24.223Z,0.10
2017-12-10T02:05:52.539Z,0.10
2017-12-10T02:08:20.812Z,0.10
2017-12-10T02:10:49.104Z,0.10
2017-12-10T02:13:17.438Z,0.10
2017-12-10T02:15:46.046Z,0.20
2017-12-10T02:18:14.315Z,0.10
2017-12-10T02:20:42.565Z,0.00
2017-12-10T02:23:10.810Z,0.00
2017-12-10T02:25:39.820Z,0.00
2017-12-10T02:28:08.101Z,0.00
2017-12-10T02:30:36.377Z,0.00
2017-12-10T02:33:04.708Z,0.10
2017-12-10T02:35:33.013Z,0.00
2017-12-10T02:38:02.067Z,0.00
2017-12-10T02:40:30.394Z,0.00
2017-12-10T02:42:59.541Z,0.00
2017-12-10T02:45:27.828Z,0.00
2017-12-10T02:47:56.223Z,-0.10
2017-12-10T02:50:24.528Z,-0.10
2017-12-10T02:52:53.651Z,-0.20
2017-12-10T02:55:21.949Z,-0.20
2017-12-10T02:57:50.248Z,-0.20
2017-12-10T03:00:18.520Z,-0.30
2017-12-10T03:02:47.690Z,-0.30
2017-12-10T03:05:15.955Z,-0.30
2017-12-10T03:07:44.265Z,-0.40
2017-12-10T03:10:12.537Z,-0.30
2017-12-10T03:12:40.794Z,-0.40
2017-12-10T03:15:09.056Z,-0.40
2017-12-10T03:17:37.403Z,-0.50
2017-12-10T03:20:06.451Z,-0.60
2017-12-10T03:22:34.737Z,-0.60
2017-12-10T03:25:03.037Z,-0.60
2017-12-10T03:27:31.323Z,-0.60
2017-12-10T03:30:00.363Z,-0.70
2017-12-10T03:32:28.602Z,-0.70
2017-12-10T03:34:57.710Z,-0.80
2017-12-10T03:37:26.772Z,-0.80
2017-12-10T03:39:55.035Z,-0.80
2017-12-10T03:42:23.332Z,-0.80
2017-12-10T03:44:51.639Z,-0.80
2017-12-10T03:47:19.916Z,-0.90
2017-12-10T03:49:48.247Z,-0.90
2017-12-10T03:52:16.497Z,-0.90
2017-12-10T03:54:44.813Z,-0.90
2017-12-10T03:57:13.107Z,-0.90
2017-12-10T03:59:42.127Z,-0.90
2017-12-10T04:02:10.390Z,-0.90
2017-12-10T04:04:38.686Z,-1.00
2017-12-10T04:07:06.926Z,-1.10
2017-12-10T04:09:36.053Z,-1.10
2017-12-10T04:12:04.358Z,-1.10
2017-12-10T04:14:32.619Z,-1.10
2017-12-10T04:17:00.913Z,-1.20
2017-12-10T04:19:29.339Z,-1.20
2017-12-10T04:21:58.378Z,-1.20
2017-12-10T04:24:26.624Z,-1.20
2017-12-10T04:26:54.920Z,-1.30
2017-12-10T04:29:23.193Z,-1.30
2017-12-10T04:31:51.458Z,-1.40
2017-12-10T04:34:19.702Z,-1.30
2017-12-10T04:36:48.747Z,-1.30
2017-12-10T04:39:17.021Z,-1.40
2017-12-10T04:41:45.304Z,-1.40
2017-12-10T04:44:13.642Z,-1.40
2017-12-10T04:46:42.711Z,-1.60
2017-12-10T04:49:11.798Z,-1.60
2017-12-10T04:51:40.062Z,-1.60
2017-12-10T04:54:08.411Z,-1.60
2017-12-10T04:56:36.763Z,-1.60
2017-12-10T04:59:05.807Z,-1.60
2017-12-10T05:01:34.097Z,-1.60
2017-12-10T05:04:02.342Z,-1.60
2017-12-10T05:06:30.662Z,-1.70
2017-12-10T05:08:58.917Z,-1.70
2017-12-10T05:11:27.184Z,-1.70
2017-12-10T05:13:55.514Z,-1.80
2017-12-10T05:16:24.558Z,-1.90
2017-12-10T05:18:52.845Z,-1.90
2017-12-10T05:21:21.188Z,-1.90
2017-12-10T05:23:49.475Z,-1.90
2017-12-10T05:26:17.783Z,-1.90
2017-12-10T05:28:46.179Z,-1.90
2017-12-10T05:31:14.460Z,-1.90
2017-12-10T05:33:42.764Z,-1.80
2017-12-10T05:36:11.052Z,-1.80
2017-12-10T05:38:39.327Z,-1.80
2017-12-10T05:41:07.612Z,-1.70
2017-12-10T05:43:36.001Z,-1.70
2017-12-10T05:46:04.427Z,-1.70
2017-12-10T05:48:33.456Z,-1.60
2017-12-10T05:51:01.747Z,-1.70
2017-12-10T05:53:30.028Z,-1.60
2017-12-10T05:55:58.268Z,-1.70
2017-12-10T05:58:26.560Z,-1.70
2017-12-10T06:00:54.872Z,-1.80
2017-12-10T06:03:23.244Z,-1.80
2017-12-10T06:05:51.628Z,-1.70
2017-12-10T06:08:19.963Z,-1.70
2017-12-10T06:10:48.293Z,-1.70
2017-12-10T06:13:16.600Z,-1.70
2017-12-10T06:15:45.710Z,-1.80
2017-12-10T06:18:14.313Z,-1.80
2017-12-10T06:20:42.641Z,-1.80
2017-12-10T06:23:10.919Z,-1.80
2017-12-10T06:25:39.206Z,-1.80
2017-12-10T06:28:07.554Z,-1.80
2017-12-10T06:30:35.858Z,-1.80
2017-12-10T06:33:05.003Z,-1.80
2017-12-10T06:35:33.338Z,-1.80
2017-12-10T06:38:01.647Z,-1.70
2017-12-10T06:40:29.864Z,-1.70
2017-12-10T06:42:58.176Z,-1.70
2017-12-10T06:45:27.233Z,-1.70
2017-12-10T06:47:55.558Z,-1.60
2017-12-10T06:50:23.853Z,-1.70
2017-12-10T06:52:52.153Z,-1.70
2017-12-10T06:55:20.448Z,-1.70
2017-12-10T06:57:48.843Z,-1.60
2017-12-10T07:00:17.266Z,-1.60
2017-12-10T07:02:45.547Z,-1.60
2017-12-10T07:05:13.857Z,-1.60
2017-12-10T07:07:42.150Z,-1.60
2017-12-10T07:10:10.440Z,-1.60
2017-12-10T07:12:38.770Z,-1.60
2017-12-10T07:15:07.080Z,-1.60
2017-12-10T07:17:35.330Z,-1.50
2017-12-10T07:20:03.697Z,-1.50
2017-12-10T07:22:31.945Z,-1.50
2017-12-10T07:25:00.303Z,-1.40
2017-12-10T07:27:29.401Z,-1.30
2017-12-10T07:29:58.536Z,-1.20
2017-12-10T07:32:26.831Z,-1.20
2017-12-10T07:34:55.124Z,-1.10
2017-12-10T07:37:24.185Z,-1.00
2017-12-10T07:39:52.457Z,-1.00
2017-12-10T07:42:20.719Z,-0.90
2017-12-10T07:44:49.041Z,-0.80
2017-12-10T07:47:17.317Z,-0.80
2017-12-10T07:49:45.660Z,-0.80
2017-12-10T07:52:13.906Z,-0.80
2017-12-10T07:54:43.004Z,-0.80
2017-12-10T07:57:12.098Z,-0.80
2017-12-10T07:59:40.380Z,-0.80
2017-12-10T08:02:09.433Z,-0.70
2017-12-10T08:04:37.711Z,-0.70
2017-12-10T08:07:06.070Z,-0.60
2017-12-10T08:09:34.380Z,-0.60
2017-12-10T08:12:02.690Z,-0.50
2017-12-10T08:14:31.744Z,-0.50
2017-12-10T08:17:00.001Z,-0.50
2017-12-10T08:19:28.297Z,-0.50
2017-12-10T08:21:56.631Z,-0.50
2017-12-10T08:24:24.921Z,-0.40
2017-12-10T08:26:53.164Z,-0.40
2017-12-10T08:29:22.270Z,-0.30
2017-12-10T08:31:51.319Z,-0.30
2017-12-10T08:34:19.597Z,-0.30
2017-12-10T08:36:47.976Z,-0.20
2017-12-10T08:39:16.212Z,-0.20
2017-12-10T08:41:44.470Z,-0.10
2017-12-10T08:44:12.901Z,-0.10
2017-12-10T08:46:41.187Z,0.00
2017-12-10T08:49:09.484Z,0.00
2017-12-10T08:51:37.760Z,0.00
2017-12-10T08:54:05.997Z,0.00
2017-12-10T08:56:34.314Z,0.10
2017-12-10T08:59:02.632Z,0.00
2017-12-10T09:01:30.905Z,0.10
2017-12-10T09:03:59.226Z,0.20
2017-12-10T09:06:28.485Z,0.30
2017-12-10T09:08:56.839Z,0.20
2017-12-10T09:11:25.841Z,0.20
2017-12-10T09:13:54.914Z,0.20
2017-12-10T09:16:23.172Z,0.20
2017-12-10T09:18:51.456Z,0.20
2017-12-10T09:21:19.765Z,0.20
2017-12-10T09:23:48.773Z,0.20
2017-12-10T09:26:17.440Z,0.10
2017-12-10T09:28:46.519Z,0.10
2017-12-10T09:31:14.778Z,0.10
2017-12-10T09:33:43.004Z,0.20
2017-12-10T09:36:11.402Z,0.20
2017-12-10T09:38:39.633Z,0.20
2017-12-10T09:41:08.653Z,0.40
2017-12-10T09:43:36.931Z,0.40
2017-12-10T09:46:05.179Z,0.50
2017-12-10T09:48:34.196Z,0.60
2017-12-10T09:51:02.977Z,0.60
2017-12-10T09:53:32.028Z,0.70
2017-12-10T09:56:00.340Z,0.70
2017-12-10T09:58:28.706Z,0.80
2017-12-10T10:00:57.021Z,0.90
2017-12-10T10:03:25.341Z,0.90
2017-12-10T10:05:53.659Z,0.90
2017-12-10T10:08:22.699Z,0.80
2017-12-10T10:10:50.937Z,0.80
2017-12-10T10:13:19.283Z,0.80
2017-12-10T10:15:47.722Z,0.80
2017-12-10T10:18:16.457Z,0.80
2017-12-10T10:20:45.536Z,0.90
2017-12-10T10:23:13.798Z,0.80
2017-12-10T10:25:42.157Z,0.90
2017-12-10T10:28:10.419Z,0.80
2017-12-10T10:30:38.705Z,0.90
2017-12-10T10:33:07.040Z,1.00
2017-12-10T10:35:35.305Z,0.90
2017-12-10T10:38:03.732Z,1.00
2017-12-10T10:40:32.144Z,0.90
2017-12-10T10:43:00.554Z,0.90
2017-12-10T10:45:29.620Z,1.00
2017-12-10T10:47:58.035Z,1.00
2017-12-10T10:50:26.377Z,0.90
2017-12-10T10:52:55.444Z,1.00
2017-12-10T10:55:23.716Z,1.00
2017-12-10T10:57:52.060Z,1.00
2017-12-10T11:00:21.075Z,1.20
2017-12-10T11:02:49.414Z,1.20
2017-12-10T11:05:17.660Z,1.20
2017-12-10T11:07:45.983Z,1.10
2017-12-10T11:10:15.086Z,1.10
2017-12-10T11:12:43.362Z,1.10
2017-12-10T11:15:12.536Z,1.10
2017-12-10T11:17:40.793Z,1.10
2017-12-10T11:20:09.073Z,1.10
2017-12-10T11:22:37.399Z,1.00
2017-12-10T11:25:06.462Z,0.90
2017-12-10T11:27:34.744Z,0.90
2017-12-10T11:30:03.083Z,0.90
2017-12-10T11:32:31.436Z,1.00
2017-12-10T11:34:59.756Z,1.00
2017-12-10T11:37:28.139Z,1.10
2017-12-10T11:39:56.457Z,1.10
2017-12-10T11:42:25.621Z,1.00
2017-12-10T11:44:53.962Z,1.00
2017-12-10T11:50:28.571Z,1.10
2017-12-10T11:52:57.647Z,1.00
2017-12-10T11:55:25.939Z,1.00
2017-12-10T11:57:54.224Z,1.00
2017-12-10T12:00:22.531Z,0.90
2017-12-10T12:02:50.778Z,0.70
2017-12-10T12:05:19.023Z,0.50
2017-12-10T12:07:47.351Z,0.50
2017-12-10T12:10:16.440Z,0.40
2017-12-10T12:12:44.720Z,0.30
2017-12-10T12:15:13.891Z,0.40
2017-12-10T12:17:42.116Z,0.40
2017-12-10T12:20:10.425Z,0.40
2017-12-10T12:22:38.745Z,0.40
2017-12-10T12:25:07.011Z,0.50
2017-12-10T12:27:35.288Z,0.50
2017-12-10T12:30:03.544Z,0.50
2017-12-10T12:32:31.801Z,0.50
2017-12-10T12:35:00.803Z,0.50
2017-12-10T12:37:29.118Z,0.50
2017-12-10T12:39:57.412Z,0.60
2017-12-10T12:42:25.671Z,0.60
2017-12-10T12:44:53.933Z,0.50
2017-12-10T12:47:22.201Z,0.50
2017-12-10T12:49:51.516Z,0.40
2017-12-10T12:52:19.863Z,0.40
2017-12-10T12:54:48.105Z,0.30
2017-12-10T12:57:16.404Z,0.30
2017-12-10T12:59:45.504Z,0.20
2017-12-10T13:02:13.684Z,0.20
2017-12-10T13:04:42.730Z,0.20
2017-12-10T13:07:11.015Z,0.20
2017-12-10T13:09:39.258Z,0.10
2017-12-10T13:12:07.528Z,0.10
2017-12-10T13:14:35.835Z,0.00
2017-12-10T13:17:04.089Z,0.00
2017-12-10T13:19:32.395Z,-0.10
2017-12-10T13:22:00.690Z,-0.10
2017-12-10T13:24:28.996Z,-0.20
2017-12-10T13:26:58.072Z,-0.20
2017-12-10T13:29:26.304Z,-0.20
2017-12-10T13:31:54.628Z,-0.20
2017-12-10T13:34:23.662Z,-0.30
2017-12-10T13:36:51.936Z,-0.30
2017-12-10T13:39:20.280Z,-0.30
2017-12-10T13:41:48.576Z,-0.30
2017-12-10T13:44:25.461Z,-0.30
2017-12-10T13:46:53.772Z,-0.30
2017-12-10T13:49:22.053Z,-0.30
2017-12-10T13:51:50.296Z,-0.30
2017-12-10T13:54:18.560Z,-0.30
2017-12-10T13:56:47.623Z,-0.40
2017-12-10T13:59:15.944Z,-0.40
2017-12-10T14:01:44.252Z,-0.50
2017-12-10T14:04:12.541Z,-0.40
2017-12-10T14:06:40.808Z,-0.40
2017-12-10T14:09:09.115Z,-0.50
2017-12-10T14:11:37.416Z,-0.50
2017-12-10T14:14:06.415Z,-0.60
2017-12-10T14:16:35.458Z,-0.70
2017-12-10T14:19:03.737Z,-0.70
2017-12-10T14:21:31.991Z,-0.70
2017-12-10T14:24:00.271Z,-0.60
2017-12-10T14:26:28.587Z,-0.60
2017-12-10T14:28:56.812Z,-0.60
2017-12-10T14:31:25.136Z,-0.60
2017-12-10T14:33:53.434Z,-0.70
2017-12-10T14:36:21.789Z,-0.60
2017-12-10T14:38:50.064Z,-0.60
2017-12-10T14:41:18.363Z,-0.60
2017-12-10T14:43:46.642Z,-0.60
2017-12-10T14:46:15.722Z,-0.60
2017-12-10T14:48:44.029Z,-0.60
2017-12-10T14:51:13.049Z,-0.60
2017-12-10T14:53:41.345Z,-0.60
2017-12-10T14:56:10.521Z,-0.60
2017-12-10T14:58:38.797Z,-0.60
2017-12-10T15:01:07.052Z,-0.60
2017-12-10T15:03:36.101Z,-0.50
2017-12-10T15:06:05.041Z,-0.50
2017-12-10T15:08:34.105Z,-0.40
2017-12-10T15:11:02.395Z,-0.40
2017-12-10T15:13:30.686Z,-0.40
2017-12-10T15:15:59.801Z,-0.40
2017-12-10T15:18:28.157Z,-0.40
2017-12-10T15:20:56.472Z,-0.50
2017-12-10T15:23:24.777Z,-0.50
2017-12-10T15:25:53.057Z,-0.50
2017-12-10T15:28:21.378Z,-0.50
2017-12-10T15:30:50.448Z,-0.50
2017-12-10T15:33:18.802Z,-0.50
2017-12-10T15:35:47.050Z,-0.50
2017-12-10T15:38:15.354Z,-0.50
2017-12-10T15:40:43.618Z,-0.50
2017-12-10T15:43:11.942Z,-0.40
2017-12-10T15:45:40.202Z,-0.30
2017-12-10T15:48:08.450Z,-0.30
2017-12-10T15:50:36.696Z,-0.30
2017-12-10T15:53:05.792Z,-0.10
2017-12-10T15:55:34.796Z,-0.10
2017-12-10T15:58:03.082Z,-0.10
2017-12-10T16:00:31.354Z,-0.10
2017-12-10T16:02:59.668Z,0.00
2017-12-10T16:05:27.935Z,0.00
2017-12-10T16:07:56.249Z,0.00
2017-12-10T16:10:24.557Z,0.00
2017-12-10T16:12:53.563Z,0.10
2017-12-10T16:15:21.900Z,0.10
2017-12-10T16:17:50.124Z,0.20
2017-12-10T16:20:18.436Z,0.20
2017-12-10T16:22:47.395Z,0.20
2017-12-10T16:25:15.638Z,0.30
2017-12-10T16:27:43.884Z,0.30
2017-12-10T16:30:12.187Z,0.40
2017-12-10T16:32:40.438Z,0.40
2017-12-10T16:35:08.656Z,0.50
2017-12-10T16:37:36.918Z,0.60
2017-12-10T16:40:06.036Z,0.70
2017-12-10T16:42:35.443Z,0.80
2017-12-10T16:45:04.488Z,0.80
2017-12-10T16:47:32.785Z,0.80
2017-12-10T16:50:01.041Z,0.80
2017-12-10T16:52:29.347Z,0.90
2017-12-10T16:54:57.589Z,1.00
2017-12-10T16:57:25.867Z,1.10
2017-12-10T16:59:54.113Z,1.20
2017-12-10T17:02:23.234Z,1.20
2017-12-10T17:04:51.875Z,1.30
2017-12-10T17:07:20.894Z,1.40
2017-12-10T17:09:49.252Z,1.40
2017-12-10T17:12:18.263Z,1.50
2017-12-10T17:14:46.521Z,1.40
2017-12-10T17:17:15.930Z,1.60
2017-12-10T17:19:44.257Z,1.60
2017-12-10T17:22:12.508Z,1.70
2017-12-10T17:24:40.846Z,1.80
2017-12-10T17:27:10.169Z,1.80
2017-12-10T17:29:38.419Z,1.80
2017-12-10T17:32:07.510Z,1.90
2017-12-10T17:34:35.784Z,1.90
2017-12-10T17:37:04.859Z,2.00
2017-12-10T17:39:33.172Z,2.00
2017-12-10T17:42:02.194Z,1.90
2017-12-10T17:44:31.062Z,1.90
2017-12-10T17:47:00.144Z,2.10
2017-12-10T17:49:28.397Z,2.00
2017-12-10T17:51:56.728Z,2.10
2017-12-10T17:54:25.979Z,2.20
2017-12-10T17:56:54.236Z,2.10
2017-12-10T17:59:22.497Z,2.20
2017-12-10T18:01:50.753Z,2.30
2017-12-10T18:04:19.058Z,2.40
2017-12-10T18:06:47.333Z,2.50
2017-12-10T18:09:15.581Z,2.50
2017-12-10T18:11:43.823Z,2.60
2017-12-10T18:14:12.093Z,2.60
2017-12-10T18:16:40.393Z,2.70
2017-12-10T18:19:08.632Z,2.80
2017-12-10T18:21:36.949Z,2.70
2017-12-10T18:24:05.953Z,2.80
2017-12-10T18:26:34.967Z,2.90
2017-12-10T18:29:03.264Z,2.80
2017-12-10T18:31:31.527Z,2.90
2017-12-10T18:33:59.812Z,2.90
2017-12-10T18:36:28.060Z,3.00
2017-12-10T18:38:56.332Z,3.10
2017-12-10T18:41:25.382Z,3.20
2017-12-10T18:43:53.692Z,3.20
2017-12-10T18:46:21.928Z,3.20
2017-12-10T18:48:50.237Z,3.30
2017-12-10T18:51:18.503Z,3.30
2017-12-10T18:53:46.808Z,3.40
2017-12-10T18:56:15.076Z,3.40
2017-12-10T18:58:43.379Z,3.50
2017-12-10T19:01:11.679Z,3.50
2017-12-10T19:03:39.930Z,3.60
2017-12-10T19:06:09.242Z,3.60
2017-12-10T19:08:37.512Z,3.60
2017-12-10T19:11:05.767Z,3.70
2017-12-10T19:13:34.816Z,3.70
2017-12-10T19:16:03.080Z,3.70
2017-12-10T19:18:31.374Z,3.70
2017-12-10T19:20:59.620Z,3.80
2017-12-10T19:23:27.998Z,3.80
2017-12-10T19:25:56.315Z,3.80
2017-12-10T19:28:24.585Z,3.90
2017-12-10T19:30:52.875Z,3.90
2017-12-10T19:33:21.144Z,3.90
2017-12-10T19:35:49.435Z,3.90
2017-12-10T19:38:17.768Z,4.00
2017-12-10T19:40:46.074Z,4.00
2017-12-10T19:43:14.359Z,4.10
2017-12-10T19:45:42.647Z,4.10
2017-12-10T19:48:11.038Z,4.10
2017-12-10T19:50:39.285Z,4.20
2017-12-10T19:53:07.520Z,4.20
2017-12-10T19:55:35.885Z,4.30
2017-12-10T19:58:04.137Z,4.30
2017-12-10T20:00:32.389Z,4.30
2017-12-10T20:03:00.668Z,4.40
2017-12-10T20:05:28.985Z,4.40
2017-12-10T20:07:57.208Z,4.50
2017-12-10T20:10:26.299Z,4.50
2017-12-10T20:12:54.562Z,4.50
2017-12-10T20:15:24.325Z,4.70
2017-12-10T20:17:52.638Z,4.70
2017-12-10T20:20:21.745Z,4.90
2017-12-10T20:22:50.752Z,4.90
2017-12-10T20:25:19.067Z,4.90
2017-12-10T20:27:47.376Z,4.90
2017-12-10T20:30:16.402Z,5.00
2017-12-10T20:32:45.602Z,5.00
2017-12-10T20:35:13.836Z,5.10
2017-12-10T20:37:43.801Z,5.10
2017-12-10T20:40:12.067Z,5.20
2017-12-10T20:42:40.398Z,5.20
2017-12-10T20:45:08.672Z,5.30
2017-12-10T20:47:36.950Z,5.40
2017-12-10T20:50:05.693Z,5.40
2017-12-10T20:52:34.816Z,5.40
2017-12-10T20:55:05.275Z,5.40
2017-12-10T20:57:34.403Z,5.50
2017-12-10T21:00:03.451Z,5.50
2017-12-10T21:02:31.688Z,5.50
2017-12-10T21:04:59.961Z,5.60
2017-12-10T21:07:28.273Z,5.60
2017-12-10T21:09:57.258Z,5.60
2017-12-10T21:12:25.551Z,5.60
2017-12-10T21:14:53.803Z,5.50
2017-12-10T21:17:23.811Z,5.50
2017-12-10T21:19:52.054Z,5.50
2017-12-10T21:22:21.159Z,5.50
2017-12-10T21:24:50.235Z,5.50
2017-12-10T21:27:18.489Z,5.50
2017-12-10T21:29:46.719Z,5.50
2017-12-10T21:32:15.026Z,5.50
2017-12-10T21:34:43.286Z,5.50
2017-12-10T21:37:11.562Z,5.50
2017-12-10T21:39:39.823Z,5.50
2017-12-10T21:42:08.073Z,5.50
2017-12-10T21:44:36.330Z,5.50
2017-12-10T21:47:04.608Z,5.40
2017-12-10T21:49:32.918Z,5.50
2017-12-10T21:52:01.928Z,5.40
2017-12-10T21:54:30.204Z,5.40
2017-12-10T21:56:59.388Z,5.40
2017-12-10T21:59:28.411Z,5.60
2017-12-10T22:01:57.237Z,5.50
2017-12-10T22:04:25.497Z,5.50
2017-12-10T22:06:53.802Z,5.50
2017-12-10T22:09:22.084Z,5.50
2017-12-10T22:11:50.373Z,5.50
2017-12-10T22:14:19.463Z,5.50
2017-12-10T22:16:47.752Z,5.50
2017-12-10T22:19:16.753Z,5.50
2017-12-10T22:21:45.848Z,5.50
2017-12-10T22:24:14.899Z,5.50
2017-12-10T22:26:43.961Z,5.50
2017-12-10T22:29:12.232Z,5.50
2017-12-10T22:31:40.519Z,5.50
2017-12-10T22:34:08.821Z,5.50
2017-12-10T22:36:37.100Z,5.50
2017-12-10T22:39:05.395Z,5.50
2017-12-10T22:41:33.688Z,5.60
2017-12-10T22:44:01.995Z,5.50
2017-12-10T22:46:30.279Z,5.50
2017-12-10T22:48:58.521Z,5.60
2017-12-10T22:51:27.576Z,5.60
2017-12-10T22:53:55.859Z,5.60
2017-12-10T22:56:24.143Z,5.60
2017-12-10T22:58:52.388Z,5.60
2017-12-10T23:01:21.465Z,5.70
2017-12-10T23:03:49.741Z,5.60
2017-12-10T23:06:17.973Z,5.70
2017-12-10T23:08:46.251Z,5.70
2017-12-10T23:11:14.527Z,5.60
2017-12-10T23:13:50.624Z,5.60
2017-12-10T23:16:26.489Z,5.70
2017-12-10T23:18:54.740Z,5.60
2017-12-10T23:21:23.791Z,5.60
2017-12-10T23:23:52.039Z,5.60
2017-12-10T23:26:20.335Z,5.60
2017-12-10T23:28:48.583Z,5.60
2017-12-10T23:31:16.899Z,5.60
2017-12-10T23:33:45.192Z,5.60
2017-12-10T23:36:13.456Z,5.60
2017-12-10T23:38:41.755Z,5.60
2017-12-10T23:41:09.988Z,5.60
2017-12-10T23:43:38.290Z,5.60
2017-12-10T23:46:06.569Z,5.70
2017-12-10T23:48:34.852Z,5.70
2017-12-10T23:51:03.095Z,5.70
2017-12-10T23:53:31.368Z,5.70
2017-12-10T23:55:59.642Z,5.70
2017-12-10T23:58:28.652Z,5.60
